Wetterdaten: Donnerstag, 02.09.2010
Datum Zeit Temp. A. Feuchte A. Luftdruck Regen Wind Richtung Richtung Sonnenschein UV Solar Windben
02.09.2010 00:00 12,8 C 86 % 1019,4 hPa 0,0 mm 0,0 km/h (0 Bft) N 0 0 min 0 UV-I 0 W/m 0,0 km/h (0 Bft)
02.09.2010 00:10 12,8 C 86 % 1019,4 hPa 0,0 mm 0,0 km/h (0 Bft) N 0 0 min 0 UV-I 0 W/m 0,0 km/h (0 Bft)
02.09.2010 00:20 12,8 C 86 % 1019,3 hPa 0,0 mm 0,0 km/h (0 Bft) N 0 0 min 0 UV-I 0 W/m 0,0 km/h (0 Bft)
02.09.2010 00:30 12,8 C 86 % 1019,4 hPa 0,0 mm 0,0 km/h (0 Bft) N 0 0 min 0 UV-I 0 W/m 0,0 km/h (0 Bft)
02.09.2010 00:40 12,8 C 86 % 1019,3 hPa 0,0 mm 0,0 km/h (0 Bft) N 0 0 min 0 UV-I 0 W/m 0,0 km/h (0 Bft)
02.09.2010 00:50 12,7 C 86 % 1019,3 hPa 0,0 mm 0,0 km/h (0 Bft) N 0 0 min 0 UV-I 0 W/m 0,0 km/h (0 Bft)
02.09.2010 01:00 12,7 C 86 % 1019,3 hPa 0,0 mm 0,0 km/h (0 Bft) N 0 0 min 0 UV-I 0 W/m 0,0 km/h (0 Bft)
02.09.2010 01:10 12,7 C 87 % 1019,2 hPa 0,0 mm 0,0 km/h (0 Bft) N 0 0 min 0 UV-I 0 W/m 0,0 km/h (0 Bft)
02.09.2010 01:20 12,6 C 87 % 1019,2 hPa 0,0 mm 0,0 km/h (0 Bft) N 0 0 min 0 UV-I 0 W/m 0,0 km/h (0 Bft)
02.09.2010 01:30 12,6 C 87 % 1019,2 hPa 0,0 mm 0,0 km/h (0 Bft) N 0 0 min 0 UV-I 0 W/m 0,0 km/h (0 Bft)
02.09.2010 01:40 12,6 C 87 % 1019,2 hPa 0,0 mm 0,0 km/h (0 Bft) N 0 0 min 0 UV-I 0 W/m 0,0 km/h (0 Bft)
02.09.2010 01:50 12,6 C 87 % 1019,1 hPa 0,0 mm 0,0 km/h (0 Bft) N 0 0 min 0 UV-I 0 W/m 0,0 km/h (0 Bft)
02.09.2010 02:00 12,6 C 87 % 1019,1 hPa 0,0 mm 0,0 km/h (0 Bft) N 0 0 min 0 UV-I 0 W/m 0,0 km/h (0 Bft)
02.09.2010 02:10 12,5 C 87 % 1018,9 hPa 0,0 mm 0,0 km/h (0 Bft) N 0 0 min 0 UV-I 0 W/m 0,0 km/h (0 Bft)
02.09.2010 02:20 12,4 C 87 % 1018,9 hPa 0,0 mm 0,0 km/h (0 Bft) N 0 0 min 0 UV-I 0 W/m 0,0 km/h (0 Bft)
02.09.2010 02:30 12,4 C 87 % 1018,8 hPa 0,0 mm 0,0 km/h (0 Bft) N 0 0 min 0 UV-I 0 W/m 0,0 km/h (0 Bft)
02.09.2010 02:40 12,4 C 87 % 1018,7 hPa 0,0 mm 0,0 km/h (0 Bft) N 0 0 min 0 UV-I 0 W/m 0,0 km/h (0 Bft)
02.09.2010 02:50 12,3 C 87 % 1018,7 hPa 0,0 mm 0,0 km/h (0 Bft) N 0 0 min 0 UV-I 0 W/m 0,0 km/h (0 Bft)
02.09.2010 03:00 12,2 C 87 % 1018,7 hPa 0,0 mm 0,0 km/h (0 Bft) N 0 0 min 0 UV-I 0 W/m 0,0 km/h (0 Bft)
02.09.2010 03:10 12,2 C 87 % 1018,5 hPa 0,0 mm 0,0 km/h (0 Bft) N 0 0 min 0 UV-I 0 W/m 0,0 km/h (0 Bft)
02.09.2010 03:20 12,1 C 87 % 1018,7 hPa 0,0 mm 0,0 km/h (0 Bft) N 0 0 min 0 UV-I 0 W/m 0,0 km/h (0 Bft)
02.09.2010 03:30 11,9 C 87 % 1018,7 hPa 0,0 mm 0,0 km/h (0 Bft) N 0 0 min 0 UV-I 0 W/m 0,0 km/h (0 Bft)
02.09.2010 03:40 11,7 C 87 % 1018,7 hPa 0,0 mm 0,0 km/h (0 Bft) N 0 0 min 0 UV-I 0 W/m 0,0 km/h (0 Bft)
02.09.2010 03:50 11,5 C 87 % 1018,7 hPa 0,0 mm 0,0 km/h (0 Bft) N 0 0 min 0 UV-I 0 W/m 0,0 km/h (0 Bft)
02.09.2010 04:00 11,3 C 87 % 1018,8 hPa 0,0 mm 0,0 km/h (0 Bft) N 0 0 min 0 UV-I 0 W/m 0,0 km/h (0 Bft)
02.09.2010 04:10 11,1 C 87 % 1018,7 hPa 0,0 mm 0,0 km/h (0 Bft) N 0 0 min 0 UV-I 0 W/m 0,0 km/h (0 Bft)
02.09.2010 04:20 10,9 C 87 % 1018,7 hPa 0,0 mm 0,0 km/h (0 Bft) N 0 0 min 0 UV-I 0 W/m 0,0 km/h (0 Bft)
02.09.2010 04:30 10,8 C 87 % 1018,6 hPa 0,0 mm 0,0 km/h (0 Bft) N 0 0 min 0 UV-I 0 W/m 0,0 km/h (0 Bft)
02.09.2010 04:40 10,6 C 87 % 1018,6 hPa 0,0 mm 0,0 km/h (0 Bft) N 0 0 min 0 UV-I 0 W/m 0,0 km/h (0 Bft)
02.09.2010 04:50 10,4 C 87 % 1018,7 hPa 0,0 mm 0,0 km/h (0 Bft) N 0 0 min 0 UV-I 0 W/m 0,0 km/h (0 Bft)
02.09.2010 05:00 10,3 C 87 % 1018,6 hPa 0,0 mm 0,0 km/h (0 Bft) N 0 0 min 0 UV-I 0 W/m 0,0 km/h (0 Bft)
02.09.2010 05:10 10,2 C 87 % 1018,6 hPa 0,0 mm 0,0 km/h (0 Bft) N 0 0 min 0 UV-I 0 W/m 0,0 km/h (0 Bft)
02.09.2010 05:20 10,1 C 88 % 1018,6 hPa 0,0 mm 0,0 km/h (0 Bft) N 0 0 min 0 UV-I 0 W/m 0,0 km/h (0 Bft)
02.09.2010 05:30 10,1 C 88 % 1018,7 hPa 0,0 mm 0,0 km/h (0 Bft) N 0 0 min 0 UV-I 0 W/m 0,0 km/h (0 Bft)
02.09.2010 05:40 10,2 C 88 % 1018,7 hPa 0,0 mm 0,0 km/h (0 Bft) N 0 0 min 0 UV-I 0 W/m 0,0 km/h (0 Bft)
02.09.2010 05:50 10,3 C 88 % 1018,7 hPa 0,0 mm 0,0 km/h (0 Bft) N 0 0 min 0 UV-I 0 W/m 0,0 km/h (0 Bft)
02.09.2010 06:00 10,4 C 89 % 1018,7 hPa 0,0 mm 0,0 km/h (0 Bft) N 0 0 min 0 UV-I 0 W/m 0,0 km/h (0 Bft)
02.09.2010 06:10 10,5 C 89 % 1018,7 hPa 0,0 mm 0,0 km/h (0 Bft) N 0 0 min 0 UV-I 0 W/m 0,0 km/h (0 Bft)
02.09.2010 06:20 10,6 C 89 % 1018,8 hPa 0,0 mm 0,0 km/h (0 Bft) N 0 0 min 0 UV-I 0 W/m 0,0 km/h (0 Bft)
02.09.2010 06:30 10,7 C 89 % 1018,8 hPa 0,0 mm 0,0 km/h (0 Bft) NW 315 0 min 0 UV-I 0 W/m 1,6 km/h (1 Bft)
02.09.2010 06:40 10,7 C 89 % 1018,7 hPa 0,0 mm 0,0 km/h (0 Bft) N 0 0 min 0 UV-I 0 W/m 0,0 km/h (0 Bft)
02.09.2010 06:50 10,7 C 90 % 1018,7 hPa 0,0 mm 0,0 km/h (0 Bft) NW 315 0 min 0 UV-I 0 W/m 1,6 km/h (1 Bft)
02.09.2010 07:00 10,8 C 90 % 1018,8 hPa 0,0 mm 0,0 km/h (0 Bft) NW 315 0 min 0 UV-I 0 W/m 3,2 km/h (1 Bft)
02.09.2010 07:10 10,8 C 90 % 1018,9 hPa 0,0 mm 0,0 km/h (0 Bft) NW 315 0 min 0 UV-I 9 W/m 3,2 km/h (1 Bft)
02.09.2010 07:20 10,8 C 90 % 1019,0 hPa 0,0 mm 0,0 km/h (0 Bft) NW 315 0 min 0 UV-I 12 W/m 1,6 km/h (1 Bft)
02.09.2010 07:30 10,8 C 90 % 1019,0 hPa 0,0 mm 0,0 km/h (0 Bft) NW 315 0 min 0 UV-I 16 W/m 1,6 km/h (1 Bft)
02.09.2010 07:40 10,9 C 90 % 1018,9 hPa 0,0 mm 0,0 km/h (0 Bft) NW 315 0 min 0 UV-I 19 W/m 3,2 km/h (1 Bft)
02.09.2010 07:50 10,9 C 91 % 1019,0 hPa 0,0 mm 0,0 km/h (0 Bft) NW 315 0 min 0 UV-I 25 W/m 3,2 km/h (1 Bft)
02.09.2010 08:00 10,9 C 91 % 1018,9 hPa 0,0 mm 0,0 km/h (0 Bft) NW 306 0 min 0 UV-I 31 W/m 0,0 km/h (0 Bft)
02.09.2010 08:10 10,9 C 91 % 1018,9 hPa 0,0 mm 0,0 km/h (0 Bft) NW 315 0 min 0 UV-I 32 W/m 3,2 km/h (1 Bft)
02.09.2010 08:20 10,9 C 91 % 1018,9 hPa 0,0 mm 0,0 km/h (0 Bft) NW 315 0 min 0 UV-I 39 W/m 3,2 km/h (1 Bft)
02.09.2010 08:30 11,0 C 91 % 1018,9 hPa 0,0 mm 0,0 km/h (0 Bft) NW 315 0 min 0 UV-I 42 W/m 4,8 km/h (1 Bft)
02.09.2010 08:40 11,0 C 91 % 1018,9 hPa 0,0 mm 0,0 km/h (0 Bft) SO 135 0 min 0 UV-I 51 W/m 3,2 km/h (1 Bft)
02.09.2010 08:50 11,1 C 91 % 1019,1 hPa 0,0 mm 0,0 km/h (0 Bft) SW 225 0 min 0 UV-I 53 W/m 4,8 km/h (1 Bft)
02.09.2010 09:00 11,1 C 91 % 1019,2 hPa 0,0 mm 0,0 km/h (0 Bft) SW 225 0 min 0 UV-I 49 W/m 4,8 km/h (1 Bft)
02.09.2010 09:10 11,1 C 92 % 1019,4 hPa 0,0 mm 0,0 km/h (0 Bft) SW 225 0 min 0 UV-I 49 W/m 3,2 km/h (1 Bft)
02.09.2010 09:20 11,2 C 92 % 1019,4 hPa 0,0 mm 0,0 km/h (0 Bft) SW 225 0 min 0 UV-I 42 W/m 3,2 km/h (1 Bft)
02.09.2010 09:30 11,3 C 92 % 1019,4 hPa 0,0 mm 0,0 km/h (0 Bft) SW 225 0 min 1 UV-I 105 W/m 3,2 km/h (1 Bft)
02.09.2010 09:40 11,3 C 92 % 1019,3 hPa 0,0 mm 0,0 km/h (0 Bft) SW 225 0 min 1 UV-I 109 W/m 3,2 km/h (1 Bft)
02.09.2010 09:50 11,5 C 92 % 1019,4 hPa 0,0 mm 0,0 km/h (0 Bft) W-SW 247 0 min 1 UV-I 104 W/m 4,8 km/h (1 Bft)
02.09.2010 10:00 11,6 C 92 % 1019,4 hPa 0,0 mm 1,6 km/h (1 Bft) W-SW 247 0 min 1 UV-I 98 W/m 4,8 km/h (1 Bft)
02.09.2010 10:10 11,8 C 92 % 1019,5 hPa 0,0 mm 0,0 km/h (0 Bft) W-SW 247 0 min 1 UV-I 113 W/m 3,2 km/h (1 Bft)
02.09.2010 10:20 11,9 C 92 % 1019,5 hPa 0,0 mm 0,0 km/h (0 Bft) W-SW 247 0 min 1 UV-I 123 W/m 3,2 km/h (1 Bft)
02.09.2010 10:30 12,1 C 92 % 1019,4 hPa 0,0 mm 0,0 km/h (0 Bft) W-SW 247 0 min 1 UV-I 128 W/m 3,2 km/h (1 Bft)
02.09.2010 10:40 12,2 C 92 % 1019,4 hPa 0,0 mm 0,0 km/h (0 Bft) W-SW 247 0 min 1 UV-I 155 W/m 3,2 km/h (1 Bft)
02.09.2010 10:50 12,3 C 92 % 1019,5 hPa 0,0 mm 0,0 km/h (0 Bft) W-SW 247 0 min 2 UV-I 188 W/m 4,8 km/h (1 Bft)
02.09.2010 11:00 12,5 C 93 % 1019,5 hPa 0,0 mm 0,0 km/h (0 Bft) W-SW 247 0 min 2 UV-I 213 W/m 1,6 km/h (1 Bft)
02.09.2010 11:10 13,1 C 92 % 1019,5 hPa 0,0 mm 0,0 km/h (0 Bft) W-SW 247 0 min 2 UV-I 265 W/m 4,8 km/h (1 Bft)
02.09.2010 11:20 13,7 C 89 % 1019,5 hPa 0,0 mm 0,0 km/h (0 Bft) W-NW 292 0 min 2 UV-I 227 W/m 4,8 km/h (1 Bft)
02.09.2010 11:30 13,9 C 88 % 1019,5 hPa 0,0 mm 1,6 km/h (1 Bft) N-NW 337 0 min 2 UV-I 230 W/m 4,8 km/h (1 Bft)
02.09.2010 11:40 14,1 C 87 % 1019,4 hPa 0,0 mm 0,0 km/h (0 Bft) N-NW 337 0 min 3 UV-I 323 W/m 4,8 km/h (1 Bft)
02.09.2010 11:50 14,3 C 86 % 1019,4 hPa 0,0 mm 1,6 km/h (1 Bft) W-NW 292 0 min 3 UV-I 294 W/m 6,4 km/h (2 Bft)
02.09.2010 12:00 14,6 C 85 % 1019,3 hPa 0,0 mm 0,0 km/h (0 Bft) W 270 10 min 3 UV-I 371 W/m 3,2 km/h (1 Bft)
02.09.2010 12:10 15,2 C 82 % 1019,3 hPa 0,0 mm 1,6 km/h (1 Bft) W 270 10 min 4 UV-I 504 W/m 8,0 km/h (2 Bft)
02.09.2010 12:20 15,4 C 82 % 1019,2 hPa 0,0 mm 1,6 km/h (1 Bft) W 270 0 min 3 UV-I 366 W/m 8,0 km/h (2 Bft)
02.09.2010 12:30 15,7 C 80 % 1019,2 hPa 0,0 mm 1,6 km/h (1 Bft) W-NW 292 10 min 4 UV-I 464 W/m 6,4 km/h (2 Bft)
02.09.2010 12:40 16,1 C 78 % 1019,1 hPa 0,0 mm 1,6 km/h (1 Bft) W-NW 292 10 min 4 UV-I 429 W/m 4,8 km/h (1 Bft)
02.09.2010 12:50 16,2 C 76 % 1019,1 hPa 0,0 mm 3,2 km/h (1 Bft) W-NW 292 0 min 3 UV-I 366 W/m 9,7 km/h (2 Bft)
02.09.2010 13:00 16,3 C 75 % 1019,0 hPa 0,0 mm 1,6 km/h (1 Bft) W-NW 292 0 min 3 UV-I 301 W/m 6,4 km/h (2 Bft)
02.09.2010 13:10 16,2 C 76 % 1019,0 hPa 0,0 mm 1,6 km/h (1 Bft) W-NW 292 0 min 3 UV-I 292 W/m 8,0 km/h (2 Bft)
02.09.2010 13:20 16,5 C 75 % 1018,9 hPa 0,0 mm 1,6 km/h (1 Bft) W 270 0 min 3 UV-I 313 W/m 6,4 km/h (2 Bft)
02.09.2010 13:30 16,4 C 73 % 1019,0 hPa 0,0 mm 3,2 km/h (1 Bft) W 270 0 min 2 UV-I 236 W/m 6,4 km/h (2 Bft)
02.09.2010 13:40 16,2 C 74 % 1019,0 hPa 0,0 mm 1,6 km/h (1 Bft) W 270 0 min 1 UV-I 123 W/m 6,4 km/h (2 Bft)
02.09.2010 13:50 16,1 C 75 % 1018,9 hPa 0,0 mm 1,6 km/h (1 Bft) W 270 0 min 2 UV-I 165 W/m 4,8 km/h (1 Bft)
02.09.2010 14:00 16,1 C 75 % 1019,0 hPa 0,0 mm 1,6 km/h (1 Bft) NW 315 0 min 2 UV-I 142 W/m 6,4 km/h (2 Bft)
02.09.2010 14:10 16,1 C 75 % 1019,0 hPa 0,0 mm 1,6 km/h (1 Bft) NW 315 0 min 1 UV-I 98 W/m 11,3 km/h (2 Bft)
02.09.2010 14:20 15,8 C 77 % 1018,9 hPa 0,0 mm 3,2 km/h (1 Bft) NW 315 0 min 1 UV-I 95 W/m 8,0 km/h (2 Bft)
02.09.2010 14:30 15,7 C 78 % 1018,8 hPa 0,0 mm 1,6 km/h (1 Bft) W-NW 292 0 min 2 UV-I 163 W/m 6,4 km/h (2 Bft)
02.09.2010 14:40 15,8 C 77 % 1018,9 hPa 0,0 mm 3,2 km/h (1 Bft) NW 315 0 min 2 UV-I 239 W/m 9,7 km/h (2 Bft)
02.09.2010 14:50 16,1 C 76 % 1018,9 hPa 0,0 mm 1,6 km/h (1 Bft) W-NW 292 0 min 3 UV-I 264 W/m 8,0 km/h (2 Bft)
02.09.2010 15:00 16,2 C 75 % 1018,8 hPa 0,0 mm 1,6 km/h (1 Bft) W 270 0 min 3 UV-I 327 W/m 9,7 km/h (2 Bft)
02.09.2010 15:10 16,6 C 75 % 1018,7 hPa 0,0 mm 1,6 km/h (1 Bft) W-NW 292 0 min 3 UV-I 320 W/m 8,0 km/h (2 Bft)
02.09.2010 15:20 16,7 C 74 % 1018,6 hPa 0,0 mm 3,2 km/h (1 Bft) W-NW 292 0 min 2 UV-I 214 W/m 9,7 km/h (2 Bft)
02.09.2010 15:30 16,7 C 74 % 1018,7 hPa 0,0 mm 3,2 km/h (1 Bft) W-NW 292 10 min 3 UV-I 369 W/m 8,0 km/h (2 Bft)
02.09.2010 15:40 16,8 C 74 % 1018,7 hPa 0,0 mm 3,2 km/h (1 Bft) W-NW 292 0 min 2 UV-I 330 W/m 11,3 km/h (2 Bft)
02.09.2010 15:50 16,6 C 77 % 1018,6 hPa 0,0 mm 1,6 km/h (1 Bft) NW 315 0 min 1 UV-I 153 W/m 8,0 km/h (2 Bft)
02.09.2010 16:00 16,1 C 79 % 1018,6 hPa 0,0 mm 2,4 km/h (1 Bft) NW 309 0 min 1 UV-I 98 W/m 6,4 km/h (2 Bft)
02.09.2010 16:10 15,9 C 81 % 1018,5 hPa 0,0 mm 1,6 km/h (1 Bft) N-NW 337 0 min 1 UV-I 113 W/m 4,8 km/h (1 Bft)
02.09.2010 16:20 15,7 C 83 % 1018,5 hPa 0,0 mm 1,6 km/h (1 Bft) NW 315 0 min 1 UV-I 171 W/m 6,4 km/h (2 Bft)
02.09.2010 16:30 15,8 C 84 % 1018,5 hPa 0,0 mm 1,6 km/h (1 Bft) W-NW 292 0 min 1 UV-I 162 W/m 8,0 km/h (2 Bft)
02.09.2010 16:40 15,7 C 84 % 1018,4 hPa 0,0 mm 3,2 km/h (1 Bft) W-SW 247 0 min 1 UV-I 169 W/m 11,3 km/h (2 Bft)
02.09.2010 16:50 15,7 C 83 % 1018,5 hPa 0,0 mm 3,2 km/h (1 Bft) NW 315 0 min 1 UV-I 178 W/m 9,7 km/h (2 Bft)
02.09.2010 17:00 15,7 C 83 % 1018,6 hPa 0,0 mm 1,6 km/h (1 Bft) W-NW 292 0 min 1 UV-I 165 W/m 6,4 km/h (2 Bft)
02.09.2010 17:10 15,7 C 82 % 1018,5 hPa 0,0 mm 3,2 km/h (1 Bft) W-NW 292 0 min 1 UV-I 139 W/m 8,0 km/h (2 Bft)
02.09.2010 17:20 15,8 C 82 % 1018,5 hPa 0,0 mm 1,6 km/h (1 Bft) W-NW 292 0 min 1 UV-I 134 W/m 8,0 km/h (2 Bft)
02.09.2010 17:30 15,8 C 81 % 1018,5 hPa 0,0 mm 1,6 km/h (1 Bft) W-NW 292 0 min 1 UV-I 125 W/m 8,0 km/h (2 Bft)
02.09.2010 17:40 15,8 C 82 % 1018,4 hPa 0,0 mm 1,6 km/h (1 Bft) W-NW 292 0 min 1 UV-I 141 W/m 8,0 km/h (2 Bft)
02.09.2010 17:50 15,9 C 81 % 1018,4 hPa 0,0 mm 1,6 km/h (1 Bft) W-NW 292 0 min 1 UV-I 148 W/m 6,4 km/h (2 Bft)
02.09.2010 18:00 16,0 C 80 % 1018,4 hPa 0,0 mm 1,6 km/h (1 Bft) W-NW 292 0 min 1 UV-I 151 W/m 9,7 km/h (2 Bft)
02.09.2010 18:10 15,9 C 81 % 1018,4 hPa 0,0 mm 0,0 km/h (0 Bft) W-NW 292 0 min 1 UV-I 120 W/m 4,8 km/h (1 Bft)
02.09.2010 18:20 15,9 C 82 % 1018,4 hPa 0,0 mm 1,6 km/h (1 Bft) W-NW 292 0 min 1 UV-I 104 W/m 6,4 km/h (2 Bft)
02.09.2010 18:30 15,9 C 81 % 1018,4 hPa 0,0 mm 1,6 km/h (1 Bft) W-NW 292 0 min 1 UV-I 86 W/m 9,7 km/h (2 Bft)
02.09.2010 18:40 15,8 C 82 % 1018,4 hPa 0,0 mm 1,6 km/h (1 Bft) W-NW 292 0 min 1 UV-I 74 W/m 8,0 km/h (2 Bft)
02.09.2010 18:50 15,7 C 82 % 1018,4 hPa 0,0 mm 1,6 km/h (1 Bft) W 270 0 min 0 UV-I 53 W/m 8,0 km/h (2 Bft)
02.09.2010 19:00 15,7 C 82 % 1018,5 hPa 0,0 mm 1,6 km/h (1 Bft) W 270 0 min 0 UV-I 30 W/m 8,0 km/h (2 Bft)
02.09.2010 19:10 15,6 C 82 % 1018,5 hPa 0,0 mm 1,6 km/h (1 Bft) W 270 0 min 0 UV-I 32 W/m 6,4 km/h (2 Bft)
02.09.2010 19:20 15,6 C 82 % 1018,6 hPa 0,0 mm 0,0 km/h (0 Bft) W 270 0 min 0 UV-I 32 W/m 6,4 km/h (2 Bft)
02.09.2010 19:30 15,6 C 83 % 1018,6 hPa 0,0 mm 0,0 km/h (0 Bft) W 270 0 min 0 UV-I 28 W/m 3,2 km/h (1 Bft)
02.09.2010 19:40 15,6 C 83 % 1018,5 hPa 0,0 mm 0,0 km/h (0 Bft) W 270 10 min 0 UV-I 44 W/m 6,4 km/h (2 Bft)
02.09.2010 19:50 15,6 C 82 % 1018,6 hPa 0,0 mm 0,0 km/h (0 Bft) W 270 10 min 0 UV-I 28 W/m 6,4 km/h (2 Bft)
02.09.2010 20:00 15,4 C 82 % 1018,7 hPa 0,0 mm 1,6 km/h (1 Bft) W 270 0 min 0 UV-I 12 W/m 6,4 km/h (2 Bft)
02.09.2010 20:10 15,3 C 82 % 1018,8 hPa 0,0 mm 0,0 km/h (0 Bft) W 270 0 min 0 UV-I 5 W/m 1,6 km/h (1 Bft)
02.09.2010 20:20 15,2 C 82 % 1018,9 hPa 0,0 mm 0,0 km/h (0 Bft) W 270 0 min 0 UV-I 0 W/m 3,2 km/h (1 Bft)
02.09.2010 20:30 15,1 C 82 % 1018,9 hPa 0,0 mm 0,0 km/h (0 Bft) W 270 0 min 0 UV-I 0 W/m 1,6 km/h (1 Bft)
02.09.2010 20:40 15,1 C 83 % 1019,0 hPa 0,0 mm 0,0 km/h (0 Bft) W 270 0 min 0 UV-I 0 W/m 1,6 km/h (1 Bft)
02.09.2010 20:50 14,9 C 83 % 1019,0 hPa 0,0 mm 0,0 km/h (0 Bft) N 0 0 min 0 UV-I 0 W/m 0,0 km/h (0 Bft)
02.09.2010 21:00 14,8 C 83 % 1019,1 hPa 0,0 mm 0,0 km/h (0 Bft) N 0 0 min 0 UV-I 0 W/m 0,0 km/h (0 Bft)
02.09.2010 21:10 14,8 C 84 % 1019,1 hPa 0,0 mm 0,0 km/h (0 Bft) W 270 0 min 0 UV-I 0 W/m 1,6 km/h (1 Bft)
02.09.2010 21:20 14,7 C 84 % 1019,1 hPa 0,0 mm 0,0 km/h (0 Bft) W 270 0 min 0 UV-I 0 W/m 3,2 km/h (1 Bft)
02.09.2010 21:30 14,7 C 85 % 1019,1 hPa 0,0 mm 0,0 km/h (0 Bft) W 270 0 min 0 UV-I 0 W/m 1,6 km/h (1 Bft)
02.09.2010 21:40 14,6 C 85 % 1019,1 hPa 0,0 mm 0,0 km/h (0 Bft) W 270 0 min 0 UV-I 0 W/m 4,8 km/h (1 Bft)
02.09.2010 21:50 14,5 C 85 % 1019,1 hPa 0,0 mm 0,0 km/h (0 Bft) W 270 0 min 0 UV-I 0 W/m 3,2 km/h (1 Bft)
02.09.2010 22:00 14,4 C 86 % 1019,2 hPa 0,0 mm 0,0 km/h (0 Bft) W 270 0 min 0 UV-I 0 W/m 3,2 km/h (1 Bft)
02.09.2010 22:10 14,4 C 86 % 1019,3 hPa 0,0 mm 0,0 km/h (0 Bft) W 270 0 min 0 UV-I 0 W/m 1,6 km/h (1 Bft)
02.09.2010 22:20 14,4 C 87 % 1019,3 hPa 0,0 mm 0,0 km/h (0 Bft) W 270 0 min 0 UV-I 0 W/m 6,4 km/h (2 Bft)
02.09.2010 22:30 14,3 C 87 % 1019,4 hPa 0,0 mm 0,0 km/h (0 Bft) W 270 0 min 0 UV-I 0 W/m 4,8 km/h (1 Bft)
02.09.2010 22:40 14,3 C 87 % 1019,4 hPa 0,0 mm 0,0 km/h (0 Bft) W 270 0 min 0 UV-I 0 W/m 4,8 km/h (1 Bft)
02.09.2010 22:50 14,3 C 87 % 1019,4 hPa 0,0 mm 0,0 km/h (0 Bft) W 270 0 min 0 UV-I 0 W/m 6,4 km/h (2 Bft)
02.09.2010 23:00 14,2 C 87 % 1019,4 hPa 0,0 mm 0,0 km/h (0 Bft) W 270 0 min 0 UV-I 0 W/m 1,6 km/h (1 Bft)
02.09.2010 23:10 14,2 C 88 % 1019,4 hPa 0,0 mm 0,0 km/h (0 Bft) W 270 0 min 0 UV-I 0 W/m 3,2 km/h (1 Bft)
02.09.2010 23:20 14,1 C 88 % 1019,5 hPa 0,0 mm 0,0 km/h (0 Bft) W 270 0 min 0 UV-I 0 W/m 1,6 km/h (1 Bft)
02.09.2010 23:30 14,0 C 88 % 1019,5 hPa 0,0 mm 0,0 km/h (0 Bft) W 270 0 min 0 UV-I 0 W/m 4,8 km/h (1 Bft)
02.09.2010 23:40 14,0 C 88 % 1019,6 hPa 0,0 mm 0,0 km/h (0 Bft) W 270 0 min 0 UV-I 0 W/m 3,2 km/h (1 Bft)
02.09.2010 23:50 13,9 C 88 % 1019,5 hPa 0,0 mm 0,0 km/h (0 Bft) W 270 0 min 0 UV-I 0 W/m 1,6 km/h (1 Bft)
_ Min-Zeit 05:20 13:30 16:40 - 00:00 - - - - - 00:00
Minimum _ 10,1 C 73 % 1018,4 hPa - 0,0 km/h (0 Bft) - - - - - 0,0 km/h (0 Bft)
_ Max-Zeit 15:40 11:00 23:40 00:00 12:50 - - 12:00 12:10 12:10 14:10
Maximum _ 16,9 C 93 % 1019,6 hPa 0,0 mm 3,2 km/h
W-NW (1 Bft)
- - 10 min 4 UV-I 504 W/m 11,3 km/h
NW (2 Bft)
Durchschnitt _ 13,6 C 85 % 1018,9 hPa #0,0 mm 0,6 km/h (0 Bft) W-NW - #1:10 h 2 UV-I 156 W/m 3,8 km/h (1 Bft)